Thunder radar more information blitzortung!


Radar de pluja more information rain snow radar


Visita la nostra xarxa de llocs de meteo:

Template documentation
and downloads

And another site



Extreme low temperature From: 13-12-2017 09:00 Until: 09:59 warning for: Extreme low temperature Level: Yellow info button

Pagina Historial Weather Underground text

Diari Resum May 9, 2016 Unitats:  Mètric    Imperial   Tant
« Previous Dia
SegĂźent Dia »
Diari Setmana Mensual Anual Personalitzada
  Maxima: Minima: Media:
Temperatura: 17.6 °C 13.3 °C 15.8 °C
Punt de rosada: 16.1 °C 11.2 °C 14.5 °C
Humitat: 95 % 84 % 92 %
Wind Speed: 20.4 km/h 0.0 km/h 6.9 km/h
RĂ fegues de vent: 20.4 km/h - -
Vent:- - ENE
Pression baro: 1011.7 hPa 1006.0 hPa -
Precipitacions: 5.3 mm    
Historical Graphs
 
 
Dades de taula per May 9, 2016
Temps Temperatura Punt de rosada Pression baro Vent Wind Speed RĂ fegues de vent Humitat Rainfall Rate (Hourly)
00:03 14.6 °C 12.8 °C 1009.0 hPa ENE 11.4 km/h 11.4 km/h 89 % 0.0 mm
00:05 15.0 °C 13.2 °C 1008.0 hPa ENE 4.8 km/h 9.7 km/h 89 % 0.0 mm
00:08 14.6 °C 12.8 °C 1009.0 hPa NNE 7.4 km/h 7.4 km/h 89 % 0.0 mm
00:15 15.0 °C 13.2 °C 1008.0 hPa NE 8.0 km/h 9.7 km/h 89 % 0.0 mm
00:25 15.1 °C 13.3 °C 1007.0 hPa NE 9.7 km/h 12.9 km/h 89 % 0.0 mm
00:45 15.1 °C 13.3 °C 1007.0 hPa NE 8.0 km/h 11.3 km/h 89 % 0.0 mm
00:55 15.1 °C 13.3 °C 1007.0 hPa NE 9.7 km/h 17.7 km/h 89 % 0.0 mm
01:05 15.1 °C 13.3 °C 1007.0 hPa NNE 9.7 km/h 9.7 km/h 89 % 0.0 mm
01:15 15.2 °C 13.4 °C 1007.0 hPa NNE 9.7 km/h 9.7 km/h 89 % 0.0 mm
01:25 15.2 °C 13.4 °C 1007.0 hPa NNE 9.7 km/h 9.7 km/h 89 % 0.0 mm
01:45 15.1 °C 13.4 °C 1008.0 hPa NNE 9.7 km/h 9.7 km/h 90 % 0.0 mm
01:55 15.2 °C 13.6 °C 1007.0 hPa NNE 9.7 km/h 9.7 km/h 90 % 0.0 mm
02:05 15.3 °C 13.7 °C 1007.0 hPa NNE 9.7 km/h 9.7 km/h 90 % 0.0 mm
02:15 15.4 °C 13.6 °C 1007.0 hPa NNE 4.8 km/h 9.7 km/h 89 % 0.0 mm
02:25 15.4 °C 13.6 °C 1008.0 hPa NE 4.8 km/h 4.8 km/h 89 % 0.0 mm
02:35 15.4 °C 13.6 °C 1008.0 hPa ENE 8.0 km/h 9.7 km/h 89 % 0.0 mm
02:45 15.5 °C 13.7 °C 1007.0 hPa NE 4.8 km/h 8.0 km/h 89 % 0.0 mm
02:55 15.3 °C 13.3 °C 1008.0 hPa NNE 8.0 km/h 9.7 km/h 88 % 0.0 mm
03:05 15.1 °C 13.1 °C 1008.0 hPa NE 4.8 km/h 4.8 km/h 88 % 0.0 mm
03:15 14.9 °C 13.1 °C 1008.0 hPa NE 1.6 km/h 3.2 km/h 89 % 0.0 mm
03:25 14.7 °C 12.9 °C 1007.0 hPa NE 3.2 km/h 3.2 km/h 89 % 0.0 mm
03:35 14.7 °C 13.2 °C 1007.0 hPa NE 3.2 km/h 3.2 km/h 91 % 0.0 mm
03:45 14.8 °C 13.3 °C 1008.0 hPa NE 3.2 km/h 4.8 km/h 91 % 0.0 mm
03:55 14.9 °C 13.6 °C 1007.0 hPa ENE 4.8 km/h 4.8 km/h 92 % 0.0 mm
04:05 14.9 °C 13.8 °C 1007.0 hPa ENE 3.2 km/h 6.4 km/h 93 % 0.0 mm
04:15 15.0 °C 13.9 °C 1007.0 hPa NE 4.8 km/h 6.4 km/h 93 % 0.0 mm
04:25 15.0 °C 14.1 °C 1007.0 hPa NE 4.8 km/h 6.4 km/h 94 % 0.0 mm
04:55 15.1 °C 14.2 °C 1008.0 hPa NE 3.2 km/h 8.0 km/h 94 % 0.0 mm
05:05 15.0 °C 14.1 °C 1008.0 hPa NE 4.8 km/h 9.7 km/h 94 % 0.0 mm
05:15 15.0 °C 14.2 °C 1008.0 hPa NNE 4.8 km/h 9.7 km/h 95 % 0.0 mm
05:25 15.0 °C 14.2 °C 1007.0 hPa NNE 4.8 km/h 9.7 km/h 95 % 0.0 mm
05:35 15.1 °C 14.3 °C 1007.0 hPa NNE 4.8 km/h 9.7 km/h 95 % 0.0 mm
05:45 15.1 °C 14.3 °C 1008.0 hPa NNE 4.8 km/h 9.7 km/h 95 % 0.0 mm
10:55 15.1 °C 14.3 °C 1008.0 hPa NNE 9.3 km/h 9.3 km/h 95 % 0.0 mm
11:00 15.1 °C 14.3 °C 1008.0 hPa NNE 9.3 km/h 9.3 km/h 95 % 0.0 mm
11:10 15.1 °C 14.3 °C 1007.0 hPa NNE 9.3 km/h 9.3 km/h 95 % 0.0 mm
11:15 15.1 °C 14.3 °C 1007.0 hPa NNE 9.3 km/h 9.3 km/h 95 % 0.0 mm
11:25 15.1 °C 14.3 °C 1007.0 hPa NNE 9.3 km/h 9.3 km/h 95 % 0.0 mm
11:30 15.1 °C 14.3 °C 1007.0 hPa ENE 9.3 km/h 9.3 km/h 95 % 0.0 mm
11:35 15.2 °C 14.4 °C 1007.0 hPa NNE 9.7 km/h 9.7 km/h 95 % 0.0 mm
11:40 15.2 °C 14.4 °C 1008.0 hPa ENE 4.2 km/h 5.3 km/h 95 % 0.0 mm
11:45 15.2 °C 14.4 °C 1008.0 hPa ENE 4.2 km/h 4.2 km/h 95 % 0.0 mm
11:50 15.2 °C 14.4 °C 1008.0 hPa North 6.1 km/h 6.1 km/h 95 % 0.0 mm
11:55 15.2 °C 14.2 °C 1009.0 hPa NW 5.6 km/h 5.6 km/h 94 % 0.0 mm
12:00 15.1 °C 14.2 °C 1009.0 hPa NNW 3.7 km/h 3.7 km/h 94 % 0.0 mm
12:05 15.0 °C 14.1 °C 1009.0 hPa Calm     94 % 0.0 mm
12:10 15.1 °C 14.2 °C 1007.0 hPa West 2.6 km/h 2.6 km/h 94 % 0.0 mm
12:15 15.0 °C 14.1 °C 1007.0 hPa WSW 2.3 km/h 2.3 km/h 94 % 0.0 mm
12:20 15.0 °C 14.1 °C 1007.0 hPa Calm     94 % 0.0 mm
12:25 15.0 °C 14.1 °C 1008.0 hPa Calm     94 % 0.0 mm
12:30 15.1 °C 14.2 °C 1008.0 hPa NE 5.6 km/h 5.6 km/h 94 % 0.0 mm
12:35 15.1 °C 14.2 °C 1008.0 hPa NNE 6.1 km/h 6.1 km/h 94 % 0.0 mm
12:40 15.2 °C 14.2 °C 1008.0 hPa NNE 7.4 km/h 7.4 km/h 94 % 0.0 mm
12:45 15.2 °C 14.2 °C 1008.0 hPa NNE 9.3 km/h 9.3 km/h 94 % 0.0 mm
12:50 15.3 °C 14.3 °C 1008.0 hPa ENE 7.4 km/h 7.4 km/h 94 % 0.0 mm
12:55 15.2 °C 14.2 °C 1008.0 hPa NNE 9.3 km/h 9.3 km/h 94 % 0.0 mm
13:00 15.2 °C 14.2 °C 1008.0 hPa NE 6.9 km/h 6.9 km/h 94 % 0.0 mm
13:05 15.2 °C 14.2 °C 1008.0 hPa NNE 5.6 km/h 5.6 km/h 94 % 0.0 mm
13:10 15.2 °C 14.2 °C 1008.0 hPa NNE 5.6 km/h 5.6 km/h 94 % 0.0 mm
13:15 15.2 °C 14.2 °C 1008.0 hPa NNE 7.4 km/h 7.4 km/h 94 % 0.0 mm
13:20 15.2 °C 14.2 °C 1008.0 hPa NNE 11.1 km/h 11.1 km/h 94 % 0.0 mm
13:25 15.2 °C 14.2 °C 1008.0 hPa NE 10.0 km/h 10.0 km/h 94 % 0.0 mm
13:30 15.2 °C 14.2 °C 1008.0 hPa ENE 9.3 km/h 9.3 km/h 94 % 0.0 mm
13:40 15.2 °C 14.2 °C 1008.0 hPa ENE 9.3 km/h 9.3 km/h 94 % 1.3 mm
13:45 15.2 °C 14.2 °C 1008.0 hPa ENE 9.3 km/h 9.3 km/h 94 % 1.3 mm
13:50 15.2 °C 14.2 °C 1008.0 hPa NE 9.3 km/h 9.3 km/h 94 % 1.3 mm
14:00 15.5 °C 14.7 °C 1007.0 hPa NNE 9.3 km/h 9.3 km/h 95 % 1.3 mm
14:05 15.5 °C 14.7 °C 1007.0 hPa ENE 9.3 km/h 9.3 km/h 95 % 1.3 mm
14:10 15.6 °C 14.8 °C 1008.0 hPa NNE 9.3 km/h 9.3 km/h 95 % 1.3 mm
14:15 15.7 °C 14.9 °C 1008.0 hPa NNE 10.0 km/h 10.0 km/h 95 % 1.3 mm
14:20 15.7 °C 14.9 °C 1008.0 hPa NNE 6.9 km/h 6.9 km/h 95 % 1.3 mm
14:25 15.7 °C 14.9 °C 1008.0 hPa ESE 7.4 km/h 7.4 km/h 95 % 1.3 mm
14:30 15.8 °C 15.0 °C 1008.0 hPa NNE 7.4 km/h 7.4 km/h 95 % 1.3 mm
14:35 15.8 °C 15.0 °C 1008.0 hPa NE 5.8 km/h 6.4 km/h 95 % 0.0 mm
14:40 15.8 °C 15.0 °C 1008.0 hPa ENE 4.2 km/h 4.2 km/h 95 % 0.0 mm
14:45 15.8 °C 15.0 °C 1008.0 hPa East 3.7 km/h 3.7 km/h 95 % 0.0 mm
14:50 15.9 °C 14.9 °C 1008.0 hPa ENE 3.7 km/h 3.7 km/h 94 % 0.0 mm
14:55 15.9 °C 14.9 °C 1008.0 hPa ENE 3.7 km/h 3.7 km/h 94 % 0.0 mm
15:00 15.9 °C 14.9 °C 1008.0 hPa ENE 3.7 km/h 3.7 km/h 94 % 0.0 mm
15:05 15.9 °C 14.9 °C 1008.0 hPa NE 4.2 km/h 4.2 km/h 94 % 0.0 mm
15:15 16.0 °C 15.1 °C 1008.0 hPa ENE 3.2 km/h 3.2 km/h 94 % 0.0 mm
15:20 16.0 °C 15.1 °C 1008.0 hPa ESE 5.8 km/h 5.8 km/h 94 % 0.0 mm
15:25 16.0 °C 15.1 °C 1007.0 hPa ESE 5.6 km/h 5.6 km/h 94 % 0.0 mm
15:35 16.1 °C 15.1 °C 1007.0 hPa South 1.9 km/h   94 % 0.0 mm
15:40 16.1 °C 15.1 °C 1008.0 hPa SW 1.9 km/h 2.3 km/h 94 % 0.0 mm
15:45 16.1 °C 15.3 °C 1008.0 hPa South 3.7 km/h 3.7 km/h 95 % 0.0 mm
15:50 16.0 °C 15.2 °C 1008.0 hPa East 3.9 km/h 3.9 km/h 95 % 0.0 mm
15:55 15.9 °C 15.1 °C 1008.0 hPa East 9.3 km/h 9.3 km/h 95 % 1.0 mm
16:00 15.9 °C 15.1 °C 1008.0 hPa NNE 5.6 km/h 5.6 km/h 95 % 1.0 mm
16:05 15.8 °C 15.0 °C 1008.0 hPa NNE 5.6 km/h 5.6 km/h 95 % 1.0 mm
16:10 15.9 °C 15.1 °C 1008.0 hPa ENE 9.3 km/h 9.3 km/h 95 % 1.0 mm
16:15 16.0 °C 15.2 °C 1008.0 hPa NNE 5.6 km/h 5.6 km/h 95 % 1.0 mm
16:20 16.1 °C 15.3 °C 1008.0 hPa NE 6.9 km/h 6.9 km/h 95 % 1.0 mm
16:25 16.1 °C 15.3 °C 1007.0 hPa East 9.3 km/h 9.3 km/h 95 % 1.0 mm
16:30 16.1 °C 15.3 °C 1007.0 hPa ESE 10.3 km/h 10.3 km/h 95 % 1.0 mm
16:35 16.1 °C 15.3 °C 1007.0 hPa East 9.3 km/h 9.3 km/h 95 % 1.0 mm
16:40 16.2 °C 15.4 °C 1007.0 hPa NE 7.4 km/h 7.4 km/h 95 % 1.0 mm
16:45 16.3 °C 15.5 °C 1007.0 hPa NE 7.4 km/h 7.4 km/h 95 % 1.0 mm
16:50 16.3 °C 15.5 °C 1007.0 hPa NNE 9.3 km/h 9.3 km/h 95 % 1.0 mm
16:55 16.5 °C 15.7 °C 1006.0 hPa ESE 9.3 km/h 9.3 km/h 95 % 0.0 mm
17:00 16.7 °C 15.9 °C 1006.0 hPa East 9.3 km/h 9.3 km/h 95 % 0.0 mm
17:05 16.7 °C 15.7 °C 1006.0 hPa ENE 9.3 km/h 9.3 km/h 94 % 0.0 mm
17:10 16.8 °C 15.8 °C 1007.0 hPa ESE 7.4 km/h 7.4 km/h 94 % 0.0 mm
17:15 17.0 °C 15.8 °C 1007.0 hPa NNE 13.0 km/h 13.0 km/h 93 % 0.0 mm
17:20 17.3 °C 16.0 °C 1007.0 hPa NE 11.1 km/h 11.1 km/h 92 % 0.0 mm
17:25 17.4 °C 16.1 °C 1007.0 hPa ENE 9.3 km/h 9.3 km/h 92 % 0.0 mm
17:30 17.4 °C 15.9 °C 1007.0 hPa ESE 13.0 km/h 13.0 km/h 91 % 0.0 mm
17:40 17.6 °C 15.9 °C 1007.0 hPa NE 16.1 km/h 16.1 km/h 90 % 0.0 mm
17:45 17.6 °C 15.9 °C 1007.0 hPa ENE 7.4 km/h 7.4 km/h 90 % 0.0 mm
17:50 17.6 °C 15.9 °C 1007.0 hPa SE 16.4 km/h 16.4 km/h 90 % 0.0 mm
17:55 17.6 °C 15.9 °C 1008.0 hPa NE 20.4 km/h 20.4 km/h 90 % 0.0 mm
18:00 17.6 °C 15.9 °C 1008.0 hPa ENE 16.7 km/h 16.7 km/h 90 % 0.0 mm
18:05 17.2 °C 15.6 °C 1008.0 hPa East 11.1 km/h 11.1 km/h 90 % 0.0 mm
18:10 17.1 °C 15.4 °C 1008.0 hPa ENE 9.3 km/h 9.5 km/h 90 % 0.0 mm
18:15 17.1 °C 15.4 °C 1008.0 hPa ENE 13.0 km/h 13.0 km/h 90 % 0.0 mm
18:20 16.9 °C 15.2 °C 1008.0 hPa ESE 9.3 km/h 9.3 km/h 90 % 0.0 mm
18:25 16.9 °C 15.2 °C 1008.0 hPa NNE 11.1 km/h 11.1 km/h 90 % 0.0 mm
18:30 16.9 °C 15.2 °C 1008.0 hPa ENE 11.1 km/h 11.1 km/h 90 % 0.0 mm
18:35 16.9 °C 15.2 °C 1008.0 hPa ENE 11.1 km/h 11.1 km/h 90 % 0.0 mm
18:40 16.7 °C 15.2 °C 1008.0 hPa ENE 7.4 km/h 7.4 km/h 91 % 0.0 mm
18:45 16.7 °C 15.2 °C 1008.0 hPa ENE 13.0 km/h 13.0 km/h 91 % 0.0 mm
18:50 16.7 °C 15.2 °C 1008.0 hPa East 9.3 km/h 9.3 km/h 91 % 0.0 mm
18:55 16.7 °C 15.2 °C 1008.0 hPa NNE 9.3 km/h 9.3 km/h 91 % 0.0 mm
19:00 16.7 °C 15.2 °C 1008.0 hPa ENE 10.3 km/h 10.3 km/h 91 % 0.0 mm
19:05 16.7 °C 15.2 °C 1008.0 hPa NE 3.7 km/h 3.7 km/h 91 % 0.0 mm
19:10 16.7 °C 15.2 °C 1008.0 hPa Calm     91 % 0.0 mm
19:15 16.7 °C 15.2 °C 1008.0 hPa SE 4.2 km/h   91 % 0.0 mm
19:20 16.7 °C 15.2 °C 1008.0 hPa ESE 4.2 km/h 4.2 km/h 91 % 0.0 mm
19:25 16.7 °C 15.2 °C 1008.0 hPa East 3.7 km/h 3.7 km/h 91 % 0.0 mm
19:30 16.7 °C 15.2 °C 1008.0 hPa East 2.6 km/h 2.6 km/h 91 % 0.0 mm
19:35 16.7 °C 15.2 °C 1008.0 hPa ENE 3.7 km/h 3.7 km/h 91 % 0.0 mm
19:40 16.7 °C 15.2 °C 1008.0 hPa NE 4.2 km/h 4.2 km/h 91 % 0.0 mm
19:45 16.7 °C 15.2 °C 1008.0 hPa NNE 3.7 km/h 3.7 km/h 91 % 0.0 mm
19:50 16.5 °C 15.0 °C 1008.0 hPa ENE 3.7 km/h 3.9 km/h 91 % 0.0 mm
19:55 16.5 °C 15.0 °C 1008.0 hPa ESE 9.3 km/h 9.3 km/h 91 % 0.0 mm
20:00 16.5 °C 15.0 °C 1008.0 hPa NE 7.4 km/h 7.4 km/h 91 % 0.0 mm
20:05 16.4 °C 14.9 °C 1008.0 hPa ENE 13.7 km/h 13.7 km/h 91 % 0.0 mm
20:10 16.4 °C 14.9 °C 1008.0 hPa NE 7.4 km/h 7.4 km/h 91 % 0.0 mm
20:15 16.4 °C 14.9 °C 1008.0 hPa SE 5.8 km/h 5.8 km/h 91 % 0.0 mm
20:20 16.4 °C 14.9 °C 1008.0 hPa ENE 11.1 km/h 11.1 km/h 91 % 0.0 mm
20:25 16.4 °C 14.9 °C 1009.0 hPa East 5.6 km/h 5.6 km/h 91 % 0.0 mm
20:30 16.4 °C 14.9 °C 1009.0 hPa East 5.6 km/h 5.6 km/h 91 % 0.0 mm
20:35 16.4 °C 14.9 °C 1009.0 hPa ENE 3.2 km/h 3.2 km/h 91 % 0.0 mm
20:40 16.2 °C 14.6 °C 1009.0 hPa NE 5.6 km/h 5.6 km/h 90 % 0.0 mm
20:45 16.2 °C 14.6 °C 1009.0 hPa NNE 3.9 km/h 3.9 km/h 90 % 0.0 mm
20:50 16.2 °C 14.6 °C 1009.0 hPa ENE 3.7 km/h 4.2 km/h 90 % 0.0 mm
20:55 16.2 °C 14.6 °C 1008.0 hPa ENE 3.7 km/h 3.7 km/h 90 % 0.0 mm
21:00 16.2 °C 14.6 °C 1008.0 hPa ENE 4.2 km/h 4.2 km/h 90 % 0.0 mm
21:05 16.2 °C 14.6 °C 1008.0 hPa NNE 5.6 km/h 5.6 km/h 90 % 0.0 mm
21:10 16.2 °C 14.6 °C 1008.0 hPa ENE 11.1 km/h 11.1 km/h 90 % 0.0 mm
21:15 16.2 °C 14.6 °C 1008.0 hPa SE 4.7 km/h 4.7 km/h 90 % 0.0 mm
21:20 16.1 °C 14.6 °C 1008.0 hPa ESE 5.6 km/h 5.6 km/h 91 % 0.0 mm
21:25 16.1 °C 14.6 °C 1010.0 hPa ENE 9.5 km/h 9.5 km/h 91 % 0.0 mm
21:30 16.1 °C 14.6 °C 1010.0 hPa ESE 7.4 km/h 7.4 km/h 91 % 0.0 mm
21:35 16.0 °C 14.6 °C 1010.0 hPa East 9.3 km/h 9.3 km/h 91 % 0.0 mm
21:40 16.0 °C 14.6 °C 1010.0 hPa NNE 9.3 km/h 9.3 km/h 91 % 0.0 mm
21:45 16.1 °C 14.6 °C 1010.0 hPa ESE 11.9 km/h 11.9 km/h 91 % 0.0 mm
21:50 16.0 °C 14.6 °C 1010.0 hPa ENE 9.3 km/h 9.3 km/h 91 % 0.0 mm
21:55 16.0 °C 14.7 °C 1010.7 hPa ESE 7.9 km/h 7.9 km/h 92 % 0.0 mm
22:00 16.0 °C 14.7 °C 1010.7 hPa ENE 5.6 km/h 5.6 km/h 92 % 0.0 mm
22:10 16.0 °C 14.7 °C 1010.0 hPa ESE 9.5 km/h 9.5 km/h 92 % 0.0 mm
22:15 15.9 °C 14.6 °C 1010.0 hPa ESE 6.1 km/h 6.1 km/h 92 % 0.0 mm
22:20 15.9 °C 14.6 °C 1010.0 hPa NW 3.7 km/h   92 % 0.0 mm
22:25 15.9 °C 14.6 °C 1010.0 hPa SW 3.7 km/h 3.7 km/h 92 % 0.0 mm
22:30 15.9 °C 14.8 °C 1010.0 hPa SW 3.9 km/h 3.9 km/h 93 % 0.0 mm
22:35 15.8 °C 14.7 °C 1010.0 hPa Calm     93 % 0.0 mm
22:40 15.8 °C 14.7 °C 1010.7 hPa ENE 3.7 km/h 3.7 km/h 93 % 0.0 mm
22:45 15.8 °C 14.7 °C 1010.7 hPa ENE 5.6 km/h 5.6 km/h 93 % 0.0 mm
22:50 15.8 °C 14.7 °C 1010.7 hPa East 5.8 km/h 5.8 km/h 93 % 0.0 mm
22:55 15.8 °C 14.7 °C 1010.0 hPa NE 1.9 km/h 1.9 km/h 93 % 0.0 mm
23:00 15.8 °C 14.8 °C 1010.0 hPa WNW 2.3 km/h   94 % 0.0 mm
23:05 15.9 °C 14.8 °C 1010.0 hPa WNW 4.2 km/h 4.2 km/h 93 % 0.0 mm
23:10 15.8 °C 14.7 °C 1010.7 hPa West 8.7 km/h 8.7 km/h 93 % 0.0 mm
23:15 15.4 °C 14.1 °C 1010.7 hPa WSW 5.6 km/h 5.6 km/h 92 % 0.0 mm
23:20 15.0 °C 13.2 °C 1010.7 hPa WNW 11.1 km/h 11.1 km/h 89 % 0.0 mm
23:25 14.9 °C 12.8 °C 1010.7 hPa WNW 9.3 km/h 9.3 km/h 87 % 0.0 mm
23:30 14.6 °C 12.1 °C 1010.7 hPa WNW 8.7 km/h 8.7 km/h 85 % 0.0 mm
23:35 13.9 °C 11.2 °C 1010.7 hPa NNE 3.9 km/h 3.9 km/h 84 % 1.0 mm
23:40 13.7 °C 11.2 °C 1011.7 hPa NNE 3.9 km/h 3.9 km/h 85 % 2.0 mm
23:45 13.5 °C 11.4 °C 1011.7 hPa NNE 1.9 km/h   87 % 3.0 mm
23:50 13.4 °C 11.3 °C 1011.7 hPa NE 3.7 km/h 3.7 km/h 87 % 3.0 mm
23:55 13.3 °C 11.3 °C 1011.7 hPa NNE 1.9 km/h 1.9 km/h 88 % 3.0 mm
Meteo Sesrovires
Elogis d' Weather Underground - 3.5 mb

Guio original per  Jim McMurry - jmcmurry@mwt.net Adaptat per a la plantilla per  Wim van der Kuil - Leuven-Template.eu

Trobareu la nostra informacio del temps tambe a:

Weather Underground

AWEKAS